Time;durP1;ratioP1;P1;durP2;ratioP2;P2;SDS_P1;SDS_P2;PMS_P1;PMS_P2;Temp;Humidity;BMP_temperature;BMP_pressure;BME280_temperature;BME280_humidity;BME280_pressure;Samples;Min_cycle;Max_cycle;Signal;HPM_P1;HPM_P2
2024/01/27 00:01:36;;;;;;;45.03;20.07;;;-0.80;99.90;;;;;;4229127;28;20321;-59
2024/01/27 00:03:38;;;;;;;42.63;20.10;;;-0.70;99.90;;;;;;4226883;28;20735;-56
2024/01/27 00:05:39;;;;;;;38.73;18.73;;;-0.70;99.90;;;;;;4228741;28;20325;-58
2024/01/27 00:07:40;;;;;;;39.67;19.77;;;-0.60;99.90;;;;;;4226595;28;20276;-59
2024/01/27 00:09:41;;;;;;;37.73;19.13;;;-0.60;99.90;;;;;;4227927;27;20305;-59
2024/01/27 00:11:42;;;;;;;38.57;18.67;;;-0.60;99.90;;;;;;4227439;28;20326;-60
2024/01/27 00:13:45;;;;;;;33.77;17.03;;;-0.60;99.90;;;;;;4228016;28;20353;-59
2024/01/27 00:15:46;;;;;;;36.93;17.67;;;-0.60;99.90;;;;;;4227954;28;20268;-58
2024/01/27 00:17:47;;;;;;;29.07;15.67;;;-0.60;99.90;;;;;;4227946;28;20264;-59
2024/01/27 00:19:48;;;;;;;33.50;16.60;;;-0.60;99.90;;;;;;4228188;28;20272;-59
2024/01/27 00:21:50;;;;;;;35.43;17.07;;;-0.60;99.90;;;;;;4227133;28;20283;-59
2024/01/27 00:23:51;;;;;;;34.37;16.53;;;-0.60;99.90;;;;;;4228093;28;20361;-60
2024/01/27 00:25:52;;;;;;;39.53;18.73;;;-0.60;99.90;;;;;;4227164;27;20302;-58
2024/01/27 00:27:53;;;;;;;36.03;19.67;;;-0.60;99.90;;;;;;4227836;28;21553;-58
2024/01/27 00:29:54;;;;;;;38.47;18.30;;;-0.70;99.90;;;;;;4226830;28;20689;-59
2024/01/27 00:31:56;;;;;;;37.97;19.27;;;-0.70;99.90;;;;;;4227994;28;20268;-57
2024/01/27 00:33:57;;;;;;;39.60;18.90;;;-0.60;99.90;;;;;;4227305;28;20280;-60
2024/01/27 00:35:58;;;;;;;41.80;19.60;;;-0.60;99.90;;;;;;4228236;28;20605;-58
2024/01/27 00:37:59;;;;;;;38.30;19.77;;;-0.60;99.90;;;;;;4227154;28;20268;-59
2024/01/27 00:40:02;;;;;;;40.57;19.77;;;-0.70;99.90;;;;;;4226408;28;20381;-60
2024/01/27 00:42:04;;;;;;;41.37;20.17;;;-0.70;99.90;;;;;;4226413;28;20266;-58
2024/01/27 00:44:05;;;;;;;36.30;18.23;;;-0.80;99.90;;;;;;4227013;28;20353;-59
2024/01/27 00:46:06;;;;;;;35.57;18.13;;;-0.80;99.90;;;;;;4227290;28;20597;-59
2024/01/27 00:48:09;;;;;;;42.13;19.57;;;-0.70;99.90;;;;;;4227001;28;20321;-59
2024/01/27 00:50:11;;;;;;;41.17;18.37;;;-0.70;99.90;;;;;;4227564;28;20670;-59
2024/01/27 00:52:12;;;;;;;37.57;17.63;;;-0.70;99.90;;;;;;4227616;28;20621;-59
2024/01/27 00:54:14;;;;;;;35.93;17.83;;;-0.70;99.90;;;;;;4228307;28;20276;-59
2024/01/27 00:56:15;;;;;;;35.67;18.33;;;-0.60;99.90;;;;;;4227529;28;20268;-57
2024/01/27 00:58:16;;;;;;;35.20;18.23;;;-0.60;99.90;;;;;;4227534;28;20283;-59
2024/01/27 01:00:18;;;;;;;33.10;16.10;;;-0.50;99.90;;;;;;4227374;28;20276;-59
2024/01/27 01:02:19;;;;;;;32.97;16.47;;;-0.50;99.90;;;;;;4228075;28;20276;-58
2024/01/27 01:04:20;;;;;;;34.40;15.87;;;-0.50;99.90;;;;;;4226602;28;20372;-58
2024/01/27 01:06:23;;;;;;;30.57;17.33;;;-0.50;99.90;;;;;;4228281;28;20329;-59
2024/01/27 01:08:24;;;;;;;32.23;17.17;;;-0.40;99.90;;;;;;4226909;28;20283;-58
2024/01/27 01:10:27;;;;;;;34.33;17.03;;;-0.40;99.90;;;;;;4228177;28;20824;-57
2024/01/27 01:12:28;;;;;;;31.50;16.93;;;-0.30;99.90;;;;;;4226700;28;20826;-59
2024/01/27 01:14:29;;;;;;;35.57;16.87;;;-0.30;99.90;;;;;;4227627;28;20272;-57
2024/01/27 01:16:31;;;;;;;32.63;15.87;;;-0.20;99.90;;;;;;4230635;28;20601;-58
2024/01/27 01:18:32;;;;;;;32.43;15.80;;;-0.20;99.90;;;;;;4231187;28;20276;-58
2024/01/27 01:20:33;;;;;;;29.63;15.00;;;-0.10;99.90;;;;;;4230709;27;20289;-58
2024/01/27 01:22:34;;;;;;;30.20;16.13;;;-0.10;99.90;;;;;;4230366;27;20787;-60
2024/01/27 01:24:35;;;;;;;29.93;15.40;;;-0.10;99.90;;;;;;4230790;28;20353;-58
2024/01/27 01:26:36;;;;;;;26.30;14.80;;;0.00;99.90;;;;;;4230378;28;20260;-59
2024/01/27 01:28:38;;;;;;;27.90;15.57;;;0.00;99.90;;;;;;4230299;28;20272;-56
2024/01/27 01:30:39;;;;;;;25.63;14.47;;;0.00;99.90;;;;;;4226221;28;20282;-56
2024/01/27 01:32:40;;;;;;;28.93;13.90;;;0.00;99.90;;;;;;4231270;27;20372;-55
2024/01/27 01:34:41;;;;;;;33.70;14.93;;;0.10;99.90;;;;;;4228626;28;20321;-56
2024/01/27 01:36:42;;;;;;;39.40;16.33;;;0.00;99.90;;;;;;4231575;27;20264;-59
2024/01/27 01:38:44;;;;;;;33.77;16.27;;;0.10;99.90;;;;;;4229893;28;20268;-58
2024/01/27 01:40:45;;;;;;;27.50;15.30;;;0.10;99.90;;;;;;4231172;28;20800;-59
2024/01/27 01:42:55;;;;;;;26.20;13.40;;;0.00;99.90;;;;;;4229563;28;20272;-58
2024/01/27 01:44:56;;;;;;;25.60;12.52;;;0.00;99.90;;;;;;4231484;28;20321;-59
2024/01/27 01:46:58;;;;;;;20.80;11.50;;;0.00;99.90;;;;;;4229562;28;20077;-58
2024/01/27 01:49:03;;;;;;;26.53;12.57;;;0.00;99.90;;;;;;4231186;27;20324;-58
2024/01/27 01:51:05;;;;;;;20.30;12.57;;;0.00;99.90;;;;;;4229719;28;20264;-59
2024/01/27 01:53:06;;;;;;;26.17;12.67;;;-0.10;99.90;;;;;;4230607;28;20268;-59
2024/01/27 01:55:07;;;;;;;24.80;14.23;;;-0.10;99.90;;;;;;4230126;28;20325;-58
2024/01/27 01:57:09;;;;;;;30.73;15.80;;;-0.20;99.90;;;;;;4223494;27;20411;-59
2024/01/27 01:59:10;;;;;;;38.17;17.33;;;-0.30;99.90;;;;;;4227530;28;20276;-56
2024/01/27 02:01:11;;;;;;;35.23;18.27;;;-0.40;99.90;;;;;;4229717;28;20333;-59
2024/01/27 02:03:13;;;;;;;37.47;19.60;;;-0.50;99.90;;;;;;4230748;28;20309;-59
2024/01/27 02:05:14;;;;;;;34.57;17.67;;;-0.50;99.90;;;;;;4229331;28;20337;-59
2024/01/27 02:07:15;;;;;;;34.97;19.10;;;-0.50;99.90;;;;;;4231200;27;20320;-58
2024/01/27 02:09:17;;;;;;;36.20;18.77;;;-0.50;99.90;;;;;;4229148;28;20384;-58
2024/01/27 02:11:18;;;;;;;35.37;18.83;;;-0.50;99.90;;;;;;4230295;28;20325;-58
2024/01/27 02:13:21;;;;;;;38.87;19.47;;;-0.50;99.90;;;;;;4229335;28;20345;-59
2024/01/27 02:15:22;;;;;;;38.33;19.77;;;-0.40;99.90;;;;;;4231200;27;20334;-60
2024/01/27 02:17:23;;;;;;;37.90;18.63;;;-0.40;99.90;;;;;;4229303;28;20333;-60
2024/01/27 02:19:25;;;;;;;35.87;18.57;;;-0.40;99.90;;;;;;4230583;28;20336;-56
2024/01/27 02:21:26;;;;;;;40.80;21.13;;;-0.30;99.90;;;;;;4229153;28;20268;-60
2024/01/27 02:23:28;;;;;;;37.43;19.87;;;-0.30;99.90;;;;;;4230245;27;20271;-61
2024/01/27 02:25:29;;;;;;;37.50;20.47;;;-0.20;99.90;;;;;;4229243;28;20805;-59
2024/01/27 02:27:30;;;;;;;35.43;18.33;;;-0.20;99.90;;;;;;4229324;28;20749;-60
2024/01/27 02:29:31;;;;;;;31.80;17.57;;;-0.20;99.90;;;;;;4230031;27;20723;-60
2024/01/27 02:31:33;;;;;;;33.63;17.37;;;-0.20;99.90;;;;;;4229384;28;20731;-61
2024/01/27 02:33:34;;;;;;;32.90;16.33;;;-0.20;99.90;;;;;;4230433;27;20325;-59
2024/01/27 02:35:36;;;;;;;34.97;17.87;;;-0.20;99.90;;;;;;4229052;28;20736;-60
2024/01/27 02:37:37;;;;;;;37.87;18.90;;;-0.20;99.90;;;;;;4230337;28;20372;-59
2024/01/27 02:39:40;;;;;;;30.60;16.57;;;-0.20;99.90;;;;;;4228249;28;20290;-60
2024/01/27 02:41:41;;;;;;;31.47;17.07;;;-0.20;99.90;;;;;;4229577;28;20276;-60
2024/01/27 02:43:42;;;;;;;30.10;15.93;;;-0.20;99.90;;;;;;4228867;28;20257;-58
2024/01/27 02:45:43;;;;;;;29.90;16.10;;;-0.10;99.90;;;;;;4230353;27;20299;-60
2024/01/27 02:47:45;;;;;;;29.00;14.67;;;-0.10;99.90;;;;;;4228722;28;20256;-57
2024/01/27 02:49:46;;;;;;;30.33;16.03;;;-0.10;99.90;;;;;;4228956;27;20280;-58
2024/01/27 02:51:47;;;;;;;27.83;15.27;;;-0.10;99.90;;;;;;4225864;28;20272;-60
2024/01/27 02:53:49;;;;;;;30.07;17.43;;;0.00;99.90;;;;;;4229778;27;20271;-58
2024/01/27 02:55:51;;;;;;;27.13;15.20;;;-0.10;99.90;;;;;;4228794;28;20302;-55
2024/01/27 02:57:52;;;;;;;30.63;17.67;;;-0.10;99.90;;;;;;4229455;28;20276;-59
2024/01/27 02:59:54;;;;;;;31.03;16.10;;;-0.10;99.90;;;;;;4229164;28;20280;-58
2024/01/27 03:01:55;;;;;;;26.87;16.13;;;0.00;99.90;;;;;;4229647;27;20268;-56
2024/01/27 03:03:56;;;;;;;30.30;16.33;;;0.00;99.90;;;;;;4229272;28;20302;-58
2024/01/27 03:05:57;;;;;;;29.23;17.47;;;0.00;99.90;;;;;;4228800;27;20345;-58
2024/01/27 03:07:58;;;;;;;29.57;15.30;;;0.00;99.90;;;;;;4229376;28;20309;-60
2024/01/27 03:09:59;;;;;;;26.97;14.50;;;0.00;99.90;;;;;;4228197;28;20268;-55
2024/01/27 03:12:01;;;;;;;27.87;13.83;;;0.10;99.90;;;;;;4229584;28;20264;-60
2024/01/27 03:14:02;;;;;;;27.70;14.57;;;0.00;99.90;;;;;;4228810;27;20268;-57
2024/01/27 03:16:09;;;;;;;24.07;13.67;;;0.10;99.90;;;;;;4230016;28;20789;-59
2024/01/27 03:18:10;;;;;;;26.53;14.17;;;0.10;99.90;;;;;;4228870;27;20269;-59
2024/01/27 03:20:11;;;;;;;34.17;15.83;;;0.10;99.90;;;;;;4229738;27;20288;-60
2024/01/27 03:22:13;;;;;;;28.03;15.73;;;0.10;99.90;;;;;;4228284;27;20701;-59
2024/01/27 03:24:14;;;;;;;30.07;15.43;;;0.00;99.90;;;;;;4229514;28;20689;-56
2024/01/27 03:26:15;;;;;;;32.93;14.70;;;0.00;99.90;;;;;;4227852;28;20721;-59
2024/01/27 03:28:16;;;;;;;28.77;15.17;;;0.00;99.90;;;;;;4229646;28;20313;-61
2024/01/27 03:30:18;;;;;;;33.50;17.27;;;-0.10;99.90;;;;;;4227876;28;20244;-59
2024/01/27 03:32:19;;;;;;;27.50;14.67;;;0.00;99.90;;;;;;4229401;27;20664;-59
2024/01/27 03:34:24;;;;;;;28.87;15.00;;;0.00;99.90;;;;;;4228434;28;20272;-61
2024/01/27 03:36:26;;;;;;;26.90;15.17;;;0.00;99.90;;;;;;4228877;28;20260;-60
2024/01/27 03:38:27;;;;;;;33.63;15.77;;;0.00;99.90;;;;;;4228477;28;20248;-61
2024/01/27 03:40:28;;;;;;;26.90;15.07;;;0.00;99.90;;;;;;4228404;28;20701;-61
2024/01/27 03:42:29;;;;;;;31.37;15.53;;;0.00;99.90;;;;;;4227853;27;20279;-58
2024/01/27 03:44:30;;;;;;;33.20;16.10;;;0.00;99.90;;;;;;4227988;27;20276;-61
2024/01/27 03:46:31;;;;;;;26.87;14.43;;;0.10;99.90;;;;;;4229721;28;20295;-60
2024/01/27 03:48:35;;;;;;;28.93;15.73;;;0.10;99.90;;;;;;4228048;27;20260;-59
2024/01/27 03:50:36;;;;;;;34.13;16.63;;;0.10;99.90;;;;;;4228915;28;20256;-60
2024/01/27 03:52:37;;;;;;;33.43;17.07;;;0.20;99.90;;;;;;4227999;28;20329;-60
2024/01/27 03:54:39;;;;;;;33.60;16.30;;;0.20;99.90;;;;;;4228960;28;20690;-59
2024/01/27 03:56:41;;;;;;;31.97;16.83;;;0.20;99.90;;;;;;4227915;28;20336;-59
2024/01/27 03:58:43;;;;;;;27.83;15.13;;;0.20;99.90;;;;;;4228720;28;20272;-59
2024/01/27 04:00:44;;;;;;;27.97;14.97;;;0.30;99.90;;;;;;4227252;28;20264;-59
2024/01/27 04:02:45;;;;;;;24.93;14.77;;;0.30;99.90;;;;;;4226432;28;20268;-59
2024/01/27 04:04:46;;;;;;;24.37;13.77;;;0.30;99.90;;;;;;4227519;28;20292;-58
2024/01/27 04:06:47;;;;;;;30.13;15.90;;;0.30;99.90;;;;;;4228504;28;20325;-60
2024/01/27 04:08:48;;;;;;;31.20;15.53;;;0.40;99.90;;;;;;4227908;28;20328;-61
2024/01/27 04:10:49;;;;;;;27.07;13.97;;;0.40;99.90;;;;;;4227437;28;20316;-58
2024/01/27 04:12:51;;;;;;;24.27;13.20;;;0.40;99.90;;;;;;4228122;28;20807;-60
2024/01/27 04:14:52;;;;;;;25.07;12.70;;;0.40;99.90;;;;;;4227906;28;20344;-60
2024/01/27 04:16:53;;;;;;;24.23;12.77;;;0.40;99.90;;;;;;4228995;28;20252;-60
2024/01/27 04:18:54;;;;;;;25.67;11.97;;;0.40;99.90;;;;;;4227535;28;20305;-58
2024/01/27 04:20:55;;;;;;;21.40;11.73;;;0.40;99.90;;;;;;4228138;28;20290;-61
2024/01/27 04:22:56;;;;;;;17.67;10.20;;;0.30;99.90;;;;;;4227319;28;20313;-61
2024/01/27 04:24:58;;;;;;;19.63;10.07;;;0.30;99.90;;;;;;4227580;27;20288;-59
2024/01/27 04:27:02;;;;;;;19.43;10.23;;;0.20;99.90;;;;;;4226797;28;20286;-59
2024/01/27 04:29:03;;;;;;;20.57;11.87;;;0.20;99.90;;;;;;4228741;28;20321;-61
2024/01/27 04:31:05;;;;;;;22.60;11.53;;;0.20;99.90;;;;;;4227219;28;20288;-60
2024/01/27 04:33:07;;;;;;;22.43;11.37;;;0.20;99.90;;;;;;4228526;27;20268;-60
2024/01/27 04:35:12;;;;;;;20.47;11.57;;;0.30;99.90;;;;;;4227298;28;20306;-60
2024/01/27 04:37:13;;;;;;;24.27;11.53;;;0.30;99.90;;;;;;4228613;28;20344;-57
2024/01/27 04:39:15;;;;;;;22.83;11.63;;;0.20;99.90;;;;;;4227652;28;20260;-58
2024/01/27 04:41:16;;;;;;;22.93;11.70;;;0.20;99.90;;;;;;4227709;28;20322;-60
2024/01/27 04:43:21;;;;;;;22.40;12.40;;;0.20;99.90;;;;;;4227147;28;20264;-58
2024/01/27 04:45:22;;;;;;;25.73;12.30;;;0.30;99.90;;;;;;4228116;28;20348;-61
2024/01/27 04:47:23;;;;;;;24.80;13.13;;;0.20;99.90;;;;;;4228381;28;20654;-58
2024/01/27 04:49:25;;;;;;;24.10;12.63;;;0.20;99.90;;;;;;4226518;28;20340;-58
2024/01/27 04:51:26;;;;;;;27.87;13.67;;;0.30;99.90;;;;;;4228197;28;20750;-60
2024/01/27 04:53:27;;;;;;;25.30;12.60;;;0.30;99.90;;;;;;4226927;28;20260;-60
2024/01/27 04:55:28;;;;;;;22.37;13.30;;;0.30;99.90;;;;;;4228515;28;20836;-60
2024/01/27 04:57:30;;;;;;;24.60;12.77;;;0.30;99.90;;;;;;4227090;28;20276;-58
2024/01/27 04:59:31;;;;;;;20.03;11.97;;;0.40;99.90;;;;;;4228083;28;20317;-60
2024/01/27 05:01:33;;;;;;;22.40;11.90;;;0.40;99.90;;;;;;4225991;28;20268;-57
2024/01/27 05:03:35;;;;;;;20.00;11.33;;;0.40;99.90;;;;;;4228248;28;20268;-59
2024/01/27 05:05:36;;;;;;;21.23;11.83;;;0.40;99.90;;;;;;4226632;28;21029;-60
2024/01/27 05:07:38;;;;;;;19.07;9.93;;;0.40;99.90;;;;;;4228328;28;20654;-60
2024/01/27 05:09:39;;;;;;;19.73;10.57;;;0.40;99.90;;;;;;4227388;28;20824;-59
2024/01/27 05:11:42;;;;;;;20.07;11.07;;;0.40;99.90;;;;;;4227967;28;20715;-60
2024/01/27 05:13:44;;;;;;;22.77;12.23;;;0.40;99.90;;;;;;4226990;28;21674;-59
2024/01/27 05:15:45;;;;;;;17.60;10.10;;;0.40;99.90;;;;;;4227939;28;20800;-61
2024/01/27 05:17:46;;;;;;;18.70;10.90;;;0.40;99.90;;;;;;4227133;28;20340;-60
2024/01/27 05:19:49;;;;;;;20.17;10.63;;;0.40;99.90;;;;;;4227627;28;20317;-60
2024/01/27 05:21:51;;;;;;;21.97;10.90;;;0.30;99.90;;;;;;4227129;28;20740;-60
2024/01/27 05:23:52;;;;;;;19.83;9.60;;;0.40;99.90;;;;;;4226638;28;20674;-60
2024/01/27 05:25:54;;;;;;;14.70;9.63;;;0.40;99.90;;;;;;4227334;28;20291;-60
2024/01/27 05:27:56;;;;;;;20.77;9.13;;;0.40;99.90;;;;;;4224447;28;20267;-60
2024/01/27 05:29:57;;;;;;;23.87;10.00;;;0.40;99.90;;;;;;4227799;28;20388;-60
2024/01/27 05:31:58;;;;;;;18.30;9.13;;;0.50;99.90;;;;;;4226497;28;20283;-58
2024/01/27 05:33:59;;;;;;;16.23;8.67;;;0.50;99.90;;;;;;4228036;28;20284;-61
2024/01/27 05:36:00;;;;;;;14.60;8.60;;;0.40;99.90;;;;;;4226861;28;20700;-60
2024/01/27 05:38:02;;;;;;;14.80;8.17;;;0.40;99.90;;;;;;4227739;28;20272;-58
2024/01/27 05:40:04;;;;;;;15.07;8.57;;;0.40;99.90;;;;;;4226930;28;20805;-58
2024/01/27 05:42:06;;;;;;;14.63;7.67;;;0.40;99.90;;;;;;4227849;28;20325;-58
2024/01/27 05:44:07;;;;;;;14.53;8.20;;;0.40;99.90;;;;;;4226970;28;20670;-58
2024/01/27 05:46:10;;;;;;;13.83;8.00;;;0.40;99.90;;;;;;4211247;28;20352;-57
2024/01/27 05:48:11;;;;;;;14.53;7.77;;;0.40;99.90;;;;;;4226355;28;20268;-59
2024/01/27 05:50:12;;;;;;;13.77;7.50;;;0.40;99.90;;;;;;4227151;28;21251;-60
2024/01/27 05:52:13;;;;;;;15.63;8.70;;;0.30;99.90;;;;;;4226915;28;20701;-58
2024/01/27 05:54:16;;;;;;;17.43;8.70;;;0.40;99.90;;;;;;4226926;28;20356;-60
2024/01/27 05:56:20;;;;;;;16.77;9.53;;;0.40;99.90;;;;;;4227812;28;20272;-60
2024/01/27 05:58:22;;;;;;;19.70;9.10;;;0.40;99.90;;;;;;4226437;28;20329;-59
2024/01/27 06:00:23;;;;;;;17.33;9.43;;;0.40;99.90;;;;;;4227245;28;20314;-60
2024/01/27 06:02:24;;;;;;;19.57;9.47;;;0.50;99.90;;;;;;4228586;28;20801;-58
2024/01/27 06:04:25;;;;;;;14.97;8.97;;;0.50;99.90;;;;;;4230802;28;20627;-60
2024/01/27 06:06:26;;;;;;;15.10;8.47;;;0.50;99.90;;;;;;4229460;28;20280;-60
2024/01/27 06:08:27;;;;;;;12.63;7.77;;;0.50;99.90;;;;;;4230497;28;20260;-60
2024/01/27 06:10:30;;;;;;;15.43;8.10;;;0.50;99.90;;;;;;4229292;27;20321;-60
2024/01/27 06:12:31;;;;;;;13.00;7.27;;;0.50;99.90;;;;;;4230351;27;20280;-58
2024/01/27 06:14:33;;;;;;;14.97;7.30;;;0.50;99.90;;;;;;4229415;27;20771;-60
2024/01/27 06:16:35;;;;;;;12.53;7.47;;;0.50;99.90;;;;;;4229433;28;20272;-61
2024/01/27 06:18:37;;;;;;;12.27;7.03;;;0.50;99.90;;;;;;4229133;28;20690;-60
2024/01/27 06:20:40;;;;;;;14.60;7.50;;;0.50;99.90;;;;;;4230181;28;20655;-60
2024/01/27 06:22:41;;;;;;;13.07;7.63;;;0.50;99.90;;;;;;4228787;28;20264;-58
2024/01/27 06:24:43;;;;;;;11.93;7.53;;;0.50;99.90;;;;;;4230169;27;20272;-59
2024/01/27 06:26:45;;;;;;;13.00;7.13;;;0.50;99.90;;;;;;4229450;27;20356;-60
2024/01/27 06:28:46;;;;;;;15.50;8.73;;;0.50;99.90;;;;;;4228792;28;21057;-59
2024/01/27 06:30:47;;;;;;;14.00;7.27;;;0.60;99.90;;;;;;4229701;27;20324;-59
2024/01/27 06:32:49;;;;;;;17.63;8.60;;;0.60;99.90;;;;;;4229225;27;20412;-59
2024/01/27 06:34:50;;;;;;;16.77;9.87;;;0.60;99.90;;;;;;4230237;28;20309;-61
2024/01/27 06:36:51;;;;;;;22.17;11.80;;;0.70;99.90;;;;;;4229133;28;20322;-59
2024/01/27 06:38:52;;;;;;;31.30;13.37;;;0.70;99.90;;;;;;4229627;28;20744;-58
2024/01/27 06:40:54;;;;;;;18.57;10.60;;;0.70;99.90;;;;;;4228470;28;20298;-59
2024/01/27 06:42:55;;;;;;;17.70;10.73;;;0.70;99.90;;;;;;4228493;27;20325;-59
2024/01/27 06:44:56;;;;;;;18.20;10.57;;;0.70;99.90;;;;;;4228636;28;20287;-59
2024/01/27 06:46:57;;;;;;;18.50;10.53;;;0.70;99.90;;;;;;4230458;28;20357;-54
2024/01/27 06:48:58;;;;;;;20.97;11.50;;;0.80;99.90;;;;;;4226374;28;20268;-58
2024/01/27 06:50:59;;;;;;;17.00;8.60;;;0.80;99.90;;;;;;4229438;28;20283;-59
2024/01/27 06:53:01;;;;;;;13.30;6.63;;;0.90;99.90;;;;;;4228905;28;20244;-53
2024/01/27 06:55:02;;;;;;;7.20;4.27;;;1.10;99.90;;;;;;4229496;28;20715;-56
2024/01/27 06:57:04;;;;;;;10.43;5.30;;;1.20;99.90;;;;;;4229229;27;20325;-57
2024/01/27 06:59:05;;;;;;;6.07;4.40;;;1.40;99.90;;;;;;4229012;28;20317;-58
2024/01/27 07:01:07;;;;;;;4.23;3.57;;;1.70;99.90;;;;;;4227921;28;20252;-59
2024/01/27 07:03:08;;;;;;;4.30;2.57;;;1.80;99.90;;;;;;4229382;27;20685;-60
2024/01/27 07:05:12;;;;;;;5.97;2.07;;;1.90;99.90;;;;;;4230064;27;20272;-60
2024/01/27 07:07:13;;;;;;;3.67;2.20;;;2.00;99.90;;;;;;4228811;28;20352;-58
2024/01/27 07:09:14;;;;;;;4.10;2.63;;;2.10;99.90;;;;;;4229906;27;20260;-57
2024/01/27 07:11:15;;;;;;;12.00;6.47;;;2.20;99.90;;;;;;4229028;28;20748;-60
2024/01/27 07:13:16;;;;;;;4.03;2.60;;;2.20;99.90;;;;;;4229120;28;20313;-59
2024/01/27 07:15:20;;;;;;;6.23;3.10;;;2.30;99.90;;;;;;4229107;27;20253;-60
2024/01/27 07:17:21;;;;;;;4.60;2.73;;;2.40;99.90;;;;;;4229500;28;20335;-59
2024/01/27 07:19:22;;;;;;;7.57;3.13;;;2.40;99.90;;;;;;4228172;27;20276;-58
2024/01/27 07:21:24;;;;;;;4.40;3.07;;;2.40;99.90;;;;;;4228965;28;20272;-57
2024/01/27 07:23:25;;;;;;;4.33;2.27;;;2.40;99.90;;;;;;4228345;28;20305;-60
2024/01/27 07:25:28;;;;;;;3.97;2.83;;;2.40;99.90;;;;;;4229599;27;20821;-56
2024/01/27 07:27:29;;;;;;;4.10;2.70;;;2.40;99.90;;;;;;4228199;28;20264;-61
2024/01/27 07:29:30;;;;;;;24.93;4.53;;;2.40;99.90;;;;;;4220635;28;20702;-57
2024/01/27 07:31:31;;;;;;;4.87;2.60;;;2.40;99.90;;;;;;4223896;28;20669;-57
2024/01/27 07:33:33;;;;;;;6.80;2.37;;;2.40;99.90;;;;;;4222990;28;20684;-59
2024/01/27 07:35:34;;;;;;;6.77;3.03;;;2.40;99.90;;;;;;4220265;28;20863;-59
2024/01/27 07:37:36;;;;;;;6.03;2.33;;;2.50;99.90;;;;;;4224681;28;20276;-59
2024/01/27 07:39:37;;;;;;;4.30;2.13;;;2.40;99.90;;;;;;4223795;28;20345;-57
2024/01/27 07:41:38;;;;;;;7.87;2.63;;;2.40;99.90;;;;;;4222962;28;20363;-59
2024/01/27 07:43:39;;;;;;;5.67;3.50;;;2.40;99.90;;;;;;4223412;27;20690;-58
2024/01/27 07:45:41;;;;;;;6.17;3.00;;;2.40;99.90;;;;;;4211115;28;20314;-59
2024/01/27 07:47:42;;;;;;;4.73;2.63;;;2.40;99.90;;;;;;4212859;28;20331;-59
2024/01/27 07:49:44;;;;;;;5.70;2.87;;;2.40;99.90;;;;;;4227447;28;20272;-59
2024/01/27 07:51:45;;;;;;;5.10;2.63;;;2.40;99.90;;;;;;4229131;28;20279;-57
2024/01/27 07:53:47;;;;;;;7.37;2.33;;;2.40;99.90;;;;;;4228291;28;20689;-55
2024/01/27 07:55:48;;;;;;;8.43;2.50;;;2.40;99.90;;;;;;4229200;28;20333;-58
2024/01/27 07:57:49;;;;;;;10.87;5.47;;;2.40;99.90;;;;;;4227698;28;20272;-60
2024/01/27 07:59:50;;;;;;;13.80;6.00;;;2.50;99.90;;;;;;4228337;28;20419;-57
2024/01/27 08:01:51;;;;;;;17.57;7.60;;;2.50;99.90;;;;;;4226489;28;20260;-56
2024/01/27 08:03:53;;;;;;;8.53;3.30;;;2.60;99.90;;;;;;4227976;28;20343;-59
2024/01/27 08:05:55;;;;;;;12.60;5.20;;;2.60;99.90;;;;;;4228254;28;20376;-60
2024/01/27 08:07:56;;;;;;;18.47;8.63;;;2.60;99.90;;;;;;4227646;28;20288;-58
2024/01/27 08:09:59;;;;;;;23.57;10.37;;;2.60;99.90;;;;;;4228535;28;20305;-60
2024/01/27 08:12:01;;;;;;;20.13;9.13;;;2.60;99.90;;;;;;4227248;27;20275;-59
2024/01/27 08:14:03;;;;;;;19.33;8.93;;;2.60;99.90;;;;;;4228725;28;20814;-58
2024/01/27 08:16:05;;;;;;;13.03;5.13;;;2.60;99.90;;;;;;4228033;27;20603;-58
2024/01/27 08:18:06;;;;;;;15.00;6.40;;;2.60;99.90;;;;;;4228694;28;20268;-57
2024/01/27 08:20:08;;;;;;;13.27;6.03;;;2.60;99.90;;;;;;4227613;28;20337;-57
2024/01/27 08:22:09;;;;;;;14.40;6.53;;;2.60;99.90;;;;;;4228419;27;20305;-62
2024/01/27 08:24:10;;;;;;;37.03;15.93;;;2.70;99.90;;;;;;4227245;28;20313;-57
2024/01/27 08:26:12;;;;;;;28.37;11.80;;;2.70;99.90;;;;;;4228193;28;20284;-56
2024/01/27 08:28:13;;;;;;;15.00;6.70;;;2.70;99.90;;;;;;4221618;28;20778;-53
2024/01/27 08:30:14;;;;;;;13.43;7.27;;;2.70;99.90;;;;;;4221011;28;20264;-57
2024/01/27 08:32:16;;;;;;;8.10;3.10;;;2.70;99.90;;;;;;4225698;28;20252;-56
2024/01/27 08:34:17;;;;;;;10.43;4.10;;;2.80;99.90;;;;;;4219599;28;20273;-55
2024/01/27 08:36:18;;;;;;;9.07;4.87;;;2.80;99.90;;;;;;4210909;28;20315;-59
2024/01/27 08:38:19;;;;;;;5.10;2.37;;;2.80;99.90;;;;;;4210924;28;20257;-60
2024/01/27 08:40:22;;;;;;;4.63;2.70;;;2.80;99.90;;;;;;4210256;28;20671;-57
2024/01/27 08:42:23;;;;;;;6.40;2.67;;;2.90;99.90;;;;;;4210365;28;20318;-58
2024/01/27 08:44:25;;;;;;;4.63;2.03;;;3.00;99.90;;;;;;4211027;28;20269;-58
2024/01/27 08:46:26;;;;;;;5.87;2.10;;;3.00;99.90;;;;;;4219396;28;20452;-60
2024/01/27 08:48:27;;;;;;;6.20;2.23;;;3.10;99.90;;;;;;4227924;28;20264;-59
2024/01/27 08:50:29;;;;;;;3.57;1.30;;;3.10;99.90;;;;;;4226830;28;20324;-62
2024/01/27 08:52:30;;;;;;;6.27;2.53;;;3.10;99.90;;;;;;4228275;28;20329;-60
2024/01/27 08:54:31;;;;;;;6.90;2.03;;;3.10;99.90;;;;;;4226381;28;20317;-59
2024/01/27 08:56:32;;;;;;;9.93;2.73;;;3.10;99.90;;;;;;4227867;28;20754;-58
2024/01/27 08:58:33;;;;;;;5.80;2.77;;;3.10;99.90;;;;;;4227520;28;20324;-59
2024/01/27 09:00:34;;;;;;;6.10;2.13;;;3.10;99.90;;;;;;4228411;28;20272;-59
2024/01/27 09:02:35;;;;;;;7.77;2.57;;;3.10;99.90;;;;;;4226808;28;20732;-57
2024/01/27 09:04:37;;;;;;;5.47;2.97;;;3.10;99.90;;;;;;4227820;28;20340;-58
2024/01/27 09:06:38;;;;;;;6.13;2.37;;;3.10;99.90;;;;;;4226964;28;20361;-58
2024/01/27 09:08:39;;;;;;;6.43;2.47;;;3.10;99.90;;;;;;4227271;28;20775;-56
2024/01/27 09:10:40;;;;;;;4.10;2.33;;;3.10;99.90;;;;;;4227049;28;20329;-58
2024/01/27 09:12:42;;;;;;;7.97;2.73;;;3.10;99.90;;;;;;4227168;28;20748;-58
2024/01/27 09:14:43;;;;;;;7.23;3.10;;;3.10;99.90;;;;;;4227654;28;20317;-57
2024/01/27 09:16:46;;;;;;;10.20;3.97;;;3.10;99.90;;;;;;4227234;28;20276;-58
2024/01/27 09:18:50;;;;;;;4.83;1.90;;;3.20;99.90;;;;;;4227532;28;20260;-59
2024/01/27 09:20:51;;;;;;;8.50;2.17;;;3.30;99.90;;;;;;4226603;28;20294;-60
2024/01/27 09:22:52;;;;;;;13.17;2.70;;;3.40;99.90;;;;;;4228148;28;20284;-60
2024/01/27 09:24:54;;;;;;;4.93;2.53;;;3.40;99.90;;;;;;4226470;28;20744;-60
2024/01/27 09:26:56;;;;;;;7.50;3.93;;;3.40;99.90;;;;;;4227423;28;20292;-60
2024/01/27 09:28:57;;;;;;;6.40;1.90;;;3.50;99.90;;;;;;4226812;28;20310;-60
2024/01/27 09:30:58;;;;;;;6.93;1.87;;;3.50;99.90;;;;;;4227740;28;20702;-60
2024/01/27 09:32:59;;;;;;;6.83;2.00;;;3.70;99.90;;;;;;4226944;28;20313;-59
2024/01/27 09:35:00;;;;;;;8.10;2.00;;;4.00;99.90;;;;;;4227968;28;20313;-59
2024/01/27 09:37:02;;;;;;;6.60;2.10;;;4.20;99.90;;;;;;4228999;28;20272;-58
2024/01/27 09:39:04;;;;;;;5.73;2.40;;;4.30;99.90;;;;;;4230363;28;20267;-58
2024/01/27 09:41:05;;;;;;;6.03;2.80;;;4.40;99.90;;;;;;4229385;28;20252;-58
2024/01/27 09:43:10;;;;;;;12.73;4.97;;;4.60;99.90;;;;;;4230602;27;20753;-60
2024/01/27 09:45:11;;;;;;;10.83;3.40;;;4.70;99.90;;;;;;4230102;27;20244;-60
2024/01/27 09:47:13;;;;;;;5.70;2.47;;;4.80;99.90;;;;;;4230623;28;20783;-63
2024/01/27 09:49:14;;;;;;;5.57;2.67;;;4.80;99.90;;;;;;4219062;28;20638;-62
2024/01/27 09:51:16;;;;;;;6.63;2.60;;;4.80;99.90;;;;;;4229313;28;20264;-63
2024/01/27 09:53:17;;;;;;;9.40;3.50;;;4.90;99.90;;;;;;4221021;28;20273;-62
2024/01/27 09:55:18;;;;;;;6.37;3.13;;;4.80;99.90;;;;;;4229844;27;20104;-62
2024/01/27 09:57:20;;;;;;;5.47;2.27;;;4.80;99.90;;;;;;4230080;28;20544;-61
2024/01/27 09:59:22;;;;;;;4.10;1.70;;;4.80;99.90;;;;;;4229118;28;20043;-62
2024/01/27 10:01:27;;;;;;;5.07;1.70;;;4.70;99.90;;;;;;4230583;28;20471;-64
2024/01/27 10:03:29;;;;;;;5.63;1.73;;;4.60;99.90;;;;;;4228955;28;20068;-61
2024/01/27 10:05:32;;;;;;;8.07;1.80;;;4.60;99.90;;;;;;4230290;28;20655;-62
2024/01/27 10:07:33;;;;;;;4.47;1.60;;;4.60;99.90;;;;;;4228832;28;20325;-62
2024/01/27 10:09:34;;;;;;;5.50;2.13;;;4.60;99.90;;;;;;4229852;28;20288;-64
2024/01/27 10:11:38;;;;;;;3.70;1.83;;;4.60;99.90;;;;;;4215939;28;20328;-64
2024/01/27 10:13:40;;;;;;;4.60;1.33;;;4.60;99.90;;;;;;4230303;27;20288;-60
2024/01/27 10:15:41;;;;;;;5.30;1.47;;;4.60;99.90;;;;;;4228741;28;20256;-62
2024/01/27 10:17:43;;;;;;;2.97;1.67;;;4.60;99.90;;;;;;4230348;27;20294;-62
2024/01/27 10:19:44;;;;;;;6.33;1.13;;;4.60;99.90;;;;;;4229645;28;20302;-62
2024/01/27 10:21:46;;;;;;;8.27;2.10;;;4.60;99.90;;;;;;4229521;27;20337;-62
2024/01/27 10:23:47;;;;;;;6.03;1.90;;;4.50;99.90;;;;;;4229875;28;20256;-62
2024/01/27 10:25:50;;;;;;;9.83;2.30;;;4.50;99.90;;;;;;4229280;28;20305;-62
2024/01/27 10:27:57;;;;;;;4.17;2.00;;;4.60;99.90;;;;;;4229712;28;20679;-62